Time;durP1;ratioP1;P1;durP2;ratioP2;P2;SDS_P1;SDS_P2;PMS_P1;PMS_P2;Temp;Humidity;BMP_temperature;BMP_pressure;BME280_temperature;BME280_humidity;BME280_pressure;Samples;Min_cycle;Max_cycle;Signal;HPM_P1;HPM_P2
2021/05/04 00:01:58;;;;;;;3.90;2.50;;;;;;;12.83;34.84;99205.47;5079204;28;20063;-81
2021/05/04 00:04:26;;;;;;;3.97;2.97;;;;;;;12.77;35.06;99232.88;5079848;28;20044;-80
2021/05/04 00:06:53;;;;;;;4.55;2.80;;;;;;;12.77;35.15;99193.78;5080366;28;20059;-81
2021/05/04 00:09:20;;;;;;;4.70;2.72;;;;;;;12.80;35.07;99191.03;5079158;28;20048;-81
2021/05/04 00:11:47;;;;;;;4.28;2.63;;;;;;;12.79;34.98;99191.44;5079892;28;20053;-81
2021/05/04 00:14:14;;;;;;;3.72;2.78;;;;;;;12.69;35.22;99166.81;5079452;28;20060;-80
2021/05/04 00:16:42;;;;;;;3.15;2.50;;;;;;;12.77;35.10;99177.81;5080966;28;20056;-81
2021/05/04 00:19:11;;;;;;;4.50;2.72;;;;;;;12.85;34.64;99136.88;5079432;28;20060;-81
2021/05/04 00:21:39;;;;;;;4.35;2.45;;;;;;;12.75;34.98;99131.84;5079649;28;20048;-79
2021/05/04 00:24:07;;;;;;;3.83;2.35;;;;;;;12.84;34.80;99134.44;5078810;28;20049;-79
2021/05/04 00:26:35;;;;;;;4.82;2.70;;;;;;;12.88;34.93;99136.16;5078892;28;20059;-80
2021/05/04 00:29:02;;;;;;;4.60;2.65;;;;;;;12.83;35.30;99121.63;5079789;28;20059;-80
2021/05/04 00:31:29;;;;;;;4.82;2.80;;;;;;;12.82;35.03;99095.69;5078398;28;20048;-80
2021/05/04 00:33:56;;;;;;;3.83;2.80;;;;;;;12.90;34.80;99116.22;5079062;28;20052;-80
2021/05/04 00:36:23;;;;;;;3.78;2.33;;;;;;;12.86;35.00;99109.75;5078223;28;20052;-80
2021/05/04 00:38:53;;;;;;;2.67;2.13;;;;;;;12.90;34.84;99083.50;5078741;28;20048;-81
2021/05/04 00:41:20;;;;;;;5.82;2.70;;;;;;;12.80;35.00;99072.88;5079822;28;20474;-80
2021/05/04 00:43:49;;;;;;;4.50;2.42;;;;;;;12.83;35.19;99071.34;5078995;28;20079;-81
2021/05/04 00:46:17;;;;;;;4.28;2.50;;;;;;;12.84;35.43;99062.59;5079272;28;20060;-81
2021/05/04 00:48:46;;;;;;;4.68;2.97;;;;;;;12.74;35.29;99043.59;5078717;28;20072;-81
2021/05/04 00:51:13;;;;;;;3.63;2.50;;;;;;;12.78;35.21;99041.69;5078059;28;20387;-80
2021/05/04 00:53:41;;;;;;;6.78;3.42;;;;;;;12.83;35.22;99055.41;5079970;28;20486;-81
2021/05/04 00:56:10;;;;;;;4.18;2.70;;;;;;;12.78;35.00;99041.69;5078815;28;20048;-80
2021/05/04 00:58:40;;;;;;;4.07;2.78;;;;;;;12.79;35.04;99016.19;5077729;28;20386;-79
2021/05/04 01:01:07;;;;;;;3.05;2.17;;;;;;;12.86;35.14;99035.09;5079755;28;20489;-81
2021/05/04 01:03:35;;;;;;;3.58;2.38;;;;;;;12.83;35.29;99005.09;5079194;28;20067;-81
2021/05/04 01:06:08;;;;;;;3.38;2.35;;;;;;;12.77;35.48;99006.56;5080163;28;20048;-80
2021/05/04 01:08:37;;;;;;;3.63;2.55;;;;;;;12.72;35.45;98996.47;5078676;28;20053;-80
2021/05/04 01:11:04;;;;;;;3.47;2.72;;;;;;;12.80;35.10;98983.47;5078520;28;20052;-80
2021/05/04 01:13:31;;;;;;;3.70;2.80;;;;;;;12.84;35.13;98972.38;5078827;28;20871;-79
2021/05/04 01:15:58;;;;;;;3.15;2.10;;;;;;;12.78;35.17;98980.22;5077374;28;20048;-81
2021/05/04 01:18:26;;;;;;;3.38;2.10;;;;;;;12.87;35.33;98985.59;5082738;28;20048;-80
2021/05/04 01:20:57;;;;;;;4.93;2.22;;;;;;;12.86;35.11;98951.25;5081361;28;20056;-80
2021/05/04 01:23:23;;;;;;;3.92;2.60;;;;;;;12.88;35.34;98940.53;5082930;28;20059;-80
2021/05/04 01:25:50;;;;;;;4.70;2.40;;;;;;;12.83;35.46;98931.63;5083201;28;20052;-79
2021/05/04 01:28:17;;;;;;;5.85;2.40;;;;;;;12.91;35.27;98927.81;5083239;28;20059;-81
2021/05/04 01:30:44;;;;;;;5.15;3.20;;;;;;;12.91;35.24;98900.66;5083381;28;20060;-80
2021/05/04 01:33:11;;;;;;;3.10;2.30;;;;;;;12.95;35.21;98903.53;5082562;28;20057;-80
2021/05/04 01:35:38;;;;;;;5.05;2.20;;;;;;;12.88;35.42;98898.63;5082151;28;20066;-80
2021/05/04 01:38:07;;;;;;;3.78;2.10;;;;;;;12.86;35.42;98889.78;5084185;28;20075;-80
2021/05/04 01:40:34;;;;;;;4.47;2.13;;;;;;;12.98;35.06;98872.88;5081228;28;20056;-81
2021/05/04 01:43:02;;;;;;;2.88;2.15;;;;;;;12.95;35.34;98873.59;5081569;28;20405;-80
2021/05/04 01:45:29;;;;;;;3.05;2.00;;;;;;;12.99;34.97;98877.25;5083120;28;20053;-81
2021/05/04 01:47:56;;;;;;;2.88;2.00;;;;;;;13.00;35.23;98853.75;5082718;28;20045;-81
2021/05/04 01:50:22;;;;;;;2.90;2.22;;;;;;;13.07;35.26;98869.84;5082055;28;20048;-81
2021/05/04 01:52:49;;;;;;;3.42;2.00;;;;;;;13.11;34.82;98887.47;5081773;28;20053;-81
2021/05/04 01:55:19;;;;;;;3.83;2.03;;;;;;;13.06;34.79;98856.22;5081805;28;20059;-81
2021/05/04 01:57:46;;;;;;;;;;;;;;;13.09;35.20;98872.28;5081946;28;20053;-81
2021/05/04 02:00:14;;;;;;;2.20;1.73;;;;;;;13.12;34.98;98854.75;5081746;28;19929;-80
2021/05/04 02:02:41;;;;;;;3.70;2.00;;;;;;;13.08;34.81;98854.69;5080542;28;20056;-80
2021/05/04 02:05:08;;;;;;;2.50;1.52;;;;;;;13.11;34.71;98862.31;5080660;28;20063;-80
2021/05/04 02:07:36;;;;;;;2.50;1.92;;;;;;;13.05;34.94;98838.66;5080573;28;20059;-80
2021/05/04 02:10:05;;;;;;;3.80;1.80;;;;;;;13.16;34.68;98830.44;5081329;28;20057;-81
2021/05/04 02:12:35;;;;;;;3.40;1.95;;;;;;;13.21;34.88;98816.19;5080708;28;20378;-81
2021/05/04 02:15:03;;;;;;;2.40;1.80;;;;;;;13.16;34.83;98805.28;5082091;28;20049;-81
2021/05/04 02:17:29;;;;;;;2.83;1.85;;;;;;;13.22;35.01;98792.63;5081037;28;20064;-80
2021/05/04 02:19:57;;;;;;;2.42;1.88;;;;;;;13.15;34.73;98803.69;5080907;28;20052;-79
2021/05/04 02:22:24;;;;;;;4.20;2.10;;;;;;;13.25;34.81;98777.91;5081284;28;20040;-80
2021/05/04 02:24:51;;;;;;;2.20;1.73;;;;;;;13.16;34.83;98794.13;5081140;28;20052;-80
2021/05/04 02:27:18;;;;;;;2.50;1.80;;;;;;;13.24;35.25;98767.88;5080564;28;20052;-79
2021/05/04 02:29:48;;;;;;;3.42;1.70;;;;;;;13.22;34.68;98761.06;5081668;28;20056;-80
2021/05/04 02:32:15;;;;;;;4.40;1.55;;;;;;;13.25;34.56;98779.88;5082334;28;20052;-80
2021/05/04 02:34:41;;;;;;;2.20;1.60;;;;;;;13.13;35.01;98750.94;5080467;28;20053;-80
2021/05/04 02:37:09;;;;;;;2.78;1.90;;;;;;;13.19;35.11;98745.84;5081414;28;20059;-80
2021/05/04 02:39:36;;;;;;;2.58;1.73;;;;;;;13.23;34.91;98743.91;5080444;28;20421;-80
2021/05/04 02:42:03;;;;;;;2.38;1.60;;;;;;;13.25;34.98;98775.13;5079910;28;20076;-80
2021/05/04 02:44:30;;;;;;;3.13;1.73;;;;;;;13.21;35.30;98779.84;5080597;28;20053;-81
2021/05/04 02:46:58;;;;;;;2.22;1.70;;;;;;;13.23;35.29;98777.47;5080169;28;20489;-80
2021/05/04 02:49:25;;;;;;;2.50;1.60;;;;;;;13.15;35.39;98775.72;5079977;28;20048;-81
2021/05/04 02:51:52;;;;;;;5.03;1.70;;;;;;;13.18;35.93;98777.78;5080545;28;20052;-81
2021/05/04 02:54:20;;;;;;;2.88;1.63;;;;;;;13.02;36.96;98799.44;5081827;28;20059;-81
2021/05/04 02:56:47;;;;;;;5.13;1.50;;;;;;;12.90;38.33;98803.25;5079201;28;20044;-82
2021/05/04 02:59:14;;;;;;;3.03;1.63;;;;;;;12.84;40.88;98799.13;5080867;28;20075;-80
2021/05/04 03:01:41;;;;;;;2.95;1.60;;;;;;;12.56;43.29;98816.97;5080449;28;20056;-82
2021/05/04 03:04:08;;;;;;;4.40;1.80;;;;;;;12.21;46.30;98831.78;5080891;28;20048;-81
2021/05/04 03:06:36;;;;;;;6.50;2.42;;;;;;;11.23;54.48;98794.41;5080112;28;20056;-80
2021/05/04 03:09:04;;;;;;;5.63;2.50;;;;;;;10.88;57.14;98809.06;5080706;28;20488;-81
2021/05/04 03:11:31;;;;;;;3.83;2.22;;;;;;;10.16;57.26;98812.63;5079342;28;20056;-80
2021/05/04 03:13:57;;;;;;;4.03;3.15;;;;;;;9.59;63.34;98805.28;5079211;28;20397;-80
2021/05/04 03:16:24;;;;;;;3.85;2.28;;;;;;;9.58;64.02;98802.88;5079147;28;20059;-78
2021/05/04 03:18:51;;;;;;;4.75;2.60;;;;;;;9.49;66.10;98794.66;5079279;28;20044;-78
2021/05/04 03:21:21;;;;;;;5.55;3.08;;;;;;;9.50;66.71;98796.28;5078341;28;20488;-79
2021/05/04 03:23:48;;;;;;;3.20;1.73;;;;;;;9.43;64.36;98791.31;5078431;28;20048;-80
2021/05/04 03:26:15;;;;;;;4.03;2.70;;;;;;;9.31;67.06;98794.88;5078533;28;20469;-79
2021/05/04 03:28:42;;;;;;;3.13;2.10;;;;;;;9.01;69.38;98790.69;5080616;28;20048;-79
2021/05/04 03:31:10;;;;;;;7.93;3.13;;;;;;;8.97;70.52;98785.03;5079882;28;20068;-79
2021/05/04 03:33:37;;;;;;;9.10;3.00;;;;;;;9.02;70.61;98784.81;5077863;28;20044;-80
2021/05/04 03:36:05;;;;;;;2.60;2.08;;;;;;;8.95;68.85;98779.03;5079633;28;20048;-79
2021/05/04 03:38:34;;;;;;;3.47;2.92;;;;;;;8.88;71.55;98776.81;5080267;28;20057;-78
2021/05/04 03:41:01;;;;;;;3.80;2.90;;;;;;;8.87;71.12;98766.84;5078712;28;20056;-79
2021/05/04 03:43:28;;;;;;;4.85;2.60;;;;;;;8.87;70.40;98766.84;5079924;28;20134;-79
2021/05/04 03:45:57;;;;;;;6.25;2.80;;;;;;;8.77;70.32;98770.06;5079850;28;20064;-79
2021/05/04 03:48:24;;;;;;;4.88;2.25;;;;;;;8.76;70.03;98757.34;5081310;28;20053;-78
2021/05/04 03:50:51;;;;;;;2.80;2.17;;;;;;;8.79;70.54;98750.31;5080428;28;20055;-78
2021/05/04 03:53:18;;;;;;;5.20;2.13;;;;;;;8.74;69.94;98754.13;5080510;28;20056;-78
2021/05/04 03:55:46;;;;;;;5.40;2.42;;;;;;;8.81;70.68;98748.78;5078976;28;20060;-78
2021/05/04 03:58:14;;;;;;;3.88;2.13;;;;;;;8.76;70.07;98740.72;5080413;28;20052;-79
2021/05/04 04:00:41;;;;;;;5.38;2.63;;;;;;;8.74;72.22;98748.56;5079316;28;20059;-79
2021/05/04 04:03:08;;;;;;;5.25;2.60;;;;;;;8.65;72.68;98756.16;5080704;28;20071;-78
2021/05/04 04:05:35;;;;;;;10.20;3.95;;;;;;;8.51;75.35;98746.19;5081251;28;20053;-78
2021/05/04 04:08:02;;;;;;;8.15;2.55;;;;;;;8.40;76.08;98761.63;5080916;28;20063;-78
2021/05/04 04:10:29;;;;;;;5.45;2.90;;;;;;;8.27;77.45;98755.25;5079304;28;20059;-78
2021/05/04 04:12:56;;;;;;;5.88;2.67;;;;;;;8.13;77.06;98771.38;5080500;28;20071;-78
2021/05/04 04:15:23;;;;;;;6.35;3.63;;;;;;;8.08;79.68;98761.28;5079368;28;20397;-79
2021/05/04 04:17:50;;;;;;;6.03;3.30;;;;;;;8.12;79.65;98756.66;5080268;28;20067;-79
2021/05/04 04:20:17;;;;;;;4.90;2.95;;;;;;;8.14;79.18;98748.00;5078875;28;20045;-79
2021/05/04 04:22:44;;;;;;;8.15;3.60;;;;;;;8.14;80.70;98746.03;5079845;28;20379;-79
2021/05/04 04:25:12;;;;;;;6.68;3.47;;;;;;;8.17;79.90;98729.88;5079127;28;20492;-79
2021/05/04 04:27:39;;;;;;;8.38;4.43;;;;;;;8.19;79.26;98710.94;5079844;28;20512;-78
2021/05/04 04:30:10;;;;;;;6.32;3.40;;;;;;;8.21;78.17;98717.78;5077779;28;20072;-78
2021/05/04 04:32:37;;;;;;;4.72;2.35;;;;;;;8.17;77.20;98724.31;5079065;28;20067;-78
2021/05/04 04:35:05;;;;;;;4.05;2.58;;;;;;;8.12;77.29;98728.94;5076308;28;20055;-79
2021/05/04 04:37:31;;;;;;;4.03;2.67;;;;;;;8.20;77.06;98715.34;5078941;28;20063;-78
2021/05/04 04:39:58;;;;;;;5.45;2.22;;;;;;;8.27;75.45;98718.34;5079222;28;20052;-78
2021/05/04 04:42:25;;;;;;;3.20;2.60;;;;;;;8.20;75.99;98720.88;5077677;28;20048;-79
2021/05/04 04:44:52;;;;;;;5.65;2.80;;;;;;;8.26;75.76;98722.28;5077952;28;20057;-79
2021/05/04 04:47:20;;;;;;;2.95;2.15;;;;;;;8.26;75.62;98711.19;5078227;28;20436;-78
2021/05/04 04:49:47;;;;;;;4.00;2.10;;;;;;;8.19;74.38;98709.00;5078881;28;20049;-78
2021/05/04 04:52:14;;;;;;;5.72;3.08;;;;;;;8.25;75.18;98701.25;5077446;28;20056;-78
2021/05/04 04:54:41;;;;;;;4.82;2.60;;;;;;;8.29;75.88;98710.50;5077573;28;20052;-78
2021/05/04 04:57:07;;;;;;;4.47;2.40;;;;;;;8.28;74.00;98695.81;5077263;28;20059;-78
2021/05/04 04:59:35;;;;;;;5.38;2.55;;;;;;;8.34;74.35;98691.69;5078201;28;20048;-78
2021/05/04 05:02:02;;;;;;;3.25;2.10;;;;;;;8.40;73.47;98685.91;5077591;28;20044;-78
2021/05/04 05:04:30;;;;;;;2.35;1.73;;;;;;;8.46;70.76;98671.53;5077201;28;20413;-78
2021/05/04 05:06:57;;;;;;;2.15;1.50;;;;;;;8.57;70.69;98690.47;5075332;28;20052;-78
2021/05/04 05:09:24;;;;;;;2.92;1.60;;;;;;;8.63;69.44;98686.31;5075293;28;20048;-78
2021/05/04 05:11:51;;;;;;;3.47;1.85;;;;;;;8.71;69.00;98654.88;5075908;28;20059;-78
2021/05/04 05:14:17;;;;;;;3.58;1.35;;;;;;;8.85;66.37;98647.00;5074182;28;20059;-78
2021/05/04 05:16:44;;;;;;;2.55;1.35;;;;;;;9.07;66.43;98633.78;5073416;28;20067;-77
2021/05/04 05:19:11;;;;;;;3.13;1.50;;;;;;;9.23;65.67;98648.56;5074416;28;20469;-78
2021/05/04 05:21:39;;;;;;;2.65;1.55;;;;;;;9.34;64.15;98630.28;5076350;28;20048;-78
2021/05/04 05:24:07;;;;;;;1.80;1.40;;;;;;;9.41;63.62;98639.97;5076003;28;20488;-78
2021/05/04 05:26:35;;;;;;;3.50;1.50;;;;;;;9.46;63.12;98629.41;5077125;28;20052;-78
2021/05/04 05:29:03;;;;;;;1.90;1.33;;;;;;;9.57;62.58;98651.94;5075118;28;20044;-78
2021/05/04 05:31:33;;;;;;;2.53;1.30;;;;;;;9.71;62.28;98634.88;5076400;28;20056;-78
2021/05/04 05:34:00;;;;;;;2.40;1.63;;;;;;;9.80;62.23;98637.50;5076040;28;20061;-78
2021/05/04 05:36:27;;;;;;;3.20;1.63;;;;;;;9.95;61.03;98634.78;5076385;28;20482;-78
2021/05/04 05:38:55;;;;;;;2.67;1.20;;;;;;;9.94;59.11;98660.97;5075007;28;20052;-80
2021/05/04 05:41:22;;;;;;;2.55;1.40;;;;;;;9.84;60.27;98613.41;5075456;28;20052;-79
2021/05/04 05:43:48;;;;;;;4.07;1.40;;;;;;;9.83;60.26;98595.91;5076949;28;20056;-79
2021/05/04 05:46:15;;;;;;;2.20;1.23;;;;;;;9.90;60.63;98586.94;5076883;28;20052;-79
2021/05/04 05:48:43;;;;;;;2.33;1.33;;;;;;;9.86;59.37;98583.25;5076642;28;20049;-80
2021/05/04 05:51:10;;;;;;;1.65;1.20;;;;;;;9.80;58.87;98612.50;5076026;28;20052;-78
2021/05/04 05:53:38;;;;;;;2.08;1.20;;;;;;;9.89;58.42;98583.38;5078278;28;20045;-82
2021/05/04 05:56:09;;;;;;;2.42;1.40;;;;;;;9.90;58.80;98584.97;5079724;28;20465;-82
2021/05/04 05:58:36;;;;;;;1.90;1.20;;;;;;;9.92;58.97;98621.56;5079700;28;20053;-82
2021/05/04 06:01:03;;;;;;;4.55;1.20;;;;;;;9.91;59.39;98580.22;5078229;28;20056;-81
2021/05/04 06:03:30;;;;;;;2.42;1.38;;;;;;;10.01;59.51;98576.09;5080061;28;20386;-81
2021/05/04 06:05:58;;;;;;;2.22;1.35;;;;;;;10.02;59.87;98592.44;5081042;28;20511;-83
2021/05/04 06:08:25;;;;;;;5.85;2.28;;;;;;;9.97;60.55;98567.66;5081642;28;20053;-82
2021/05/04 06:10:52;;;;;;;2.10;1.23;;;;;;;9.81;61.83;98589.09;5080771;28;20049;-81
2021/05/04 06:13:21;;;;;;;2.22;1.20;;;;;;;9.72;63.27;98597.56;5080613;28;20485;-80
2021/05/04 06:15:48;;;;;;;1.57;1.33;;;;;;;9.59;63.42;98574.59;5081404;28;20045;-80
2021/05/04 06:18:16;;;;;;;1.50;0.95;;;;;;;9.49;63.67;98598.16;5081693;28;20052;-80
2021/05/04 06:20:44;;;;;;;2.97;1.60;;;;;;;9.35;63.92;98576.31;5082105;28;20071;-82
2021/05/04 06:23:13;;;;;;;1.77;1.20;;;;;;;9.50;63.17;98562.81;5082064;28;20061;-81
2021/05/04 06:25:40;;;;;;;1.58;1.00;;;;;;;9.44;63.23;98550.34;5081320;28;20057;-82
2021/05/04 06:28:09;;;;;;;3.40;1.30;;;;;;;9.55;62.65;98574.50;5081201;28;20132;-82
2021/05/04 06:30:38;;;;;;;2.45;1.23;;;;;;;9.55;62.43;98576.44;5080448;28;20055;-81
2021/05/04 06:33:07;;;;;;;2.60;1.13;;;;;;;9.57;62.42;98596.38;5081000;28;20048;-82
2021/05/04 06:35:35;;;;;;;1.80;1.25;;;;;;;9.68;61.69;98549.41;5081685;28;20049;-81
2021/05/04 06:38:03;;;;;;;3.65;1.40;;;;;;;9.62;61.72;98543.31;5082514;28;20045;-81
2021/05/04 06:40:30;;;;;;;2.05;1.25;;;;;;;9.69;61.37;98529.59;5084713;28;20045;-83
2021/05/04 06:42:57;;;;;;;3.25;1.50;;;;;;;9.67;61.31;98578.38;5083700;28;20056;-83
2021/05/04 06:45:25;;;;;;;2.10;1.23;;;;;;;9.87;60.26;98559.84;5084784;28;20056;-82
2021/05/04 06:47:53;;;;;;;4.45;1.40;;;;;;;10.02;60.01;98545.16;5083614;28;20059;-82
2021/05/04 06:50:21;;;;;;;4.72;1.30;;;;;;;10.12;59.52;98543.78;5083864;28;20048;-80
2021/05/04 06:52:48;;;;;;;2.60;1.10;;;;;;;10.23;58.89;98521.84;5085002;28;20049;-82
2021/05/04 06:55:15;;;;;;;3.40;1.70;;;;;;;10.33;59.29;98526.84;5083896;28;20177;-77
2021/05/04 06:57:42;;;;;;;3.47;1.30;;;;;;;10.50;58.32;98543.19;5077954;28;20116;-80
2021/05/04 07:00:10;;;;;;;1.70;1.15;;;;;;;10.74;56.98;98541.34;5077885;28;20060;-82
2021/05/04 07:02:37;;;;;;;3.08;1.10;;;;;;;10.96;56.07;98526.75;5078649;28;20052;-83
2021/05/04 07:05:06;;;;;;;2.75;1.00;;;;;;;10.94;56.20;98551.38;5080562;28;20060;-82
2021/05/04 07:07:33;;;;;;;1.60;1.10;;;;;;;11.00;56.03;98529.56;5082845;28;20052;-83
2021/05/04 07:10:00;;;;;;;2.63;1.20;;;;;;;11.06;56.19;98536.47;5081136;28;20056;-79
2021/05/04 07:12:27;;;;;;;2.85;1.10;;;;;;;10.91;56.73;98537.34;5080939;28;20059;-80
2021/05/04 07:14:54;;;;;;;2.45;1.10;;;;;;;10.89;57.08;98559.19;5078982;28;20473;-80
2021/05/04 07:17:22;;;;;;;2.03;1.23;;;;;;;10.92;56.89;98538.97;5080140;28;20063;-81
2021/05/04 07:19:50;;;;;;;3.15;1.38;;;;;;;10.92;57.30;98561.25;5080306;28;20057;-82
2021/05/04 07:22:21;;;;;;;2.92;1.00;;;;;;;10.79;57.55;98551.41;5072454;28;20056;-81
2021/05/04 07:24:49;;;;;;;2.47;1.00;;;;;;;10.75;58.20;98545.72;5080293;28;20053;-82
2021/05/04 07:27:15;;;;;;;4.28;1.35;;;;;;;10.49;59.47;98532.41;5079381;28;20071;-82
2021/05/04 07:29:43;;;;;;;2.22;1.38;;;;;;;10.49;59.75;98558.28;5081406;28;20057;-82
2021/05/04 07:32:10;;;;;;;1.75;0.90;;;;;;;10.36;60.48;98524.16;5080194;28;20072;-83
2021/05/04 07:34:37;;;;;;;2.45;1.15;;;;;;;10.31;61.22;98530.03;5079621;28;20059;-83
2021/05/04 07:37:04;;;;;;;1.60;1.20;;;;;;;10.10;62.46;98540.56;5079031;28;20048;-83
2021/05/04 07:39:32;;;;;;;2.33;1.30;;;;;;;10.20;62.09;98544.78;5079805;28;20049;-82
2021/05/04 07:42:03;;;;;;;2.55;1.17;;;;;;;10.33;61.73;98515.72;5080442;28;20053;-82
2021/05/04 07:44:33;;;;;;;3.35;1.58;;;;;;;10.37;61.41;98533.31;5079928;28;20059;-83
2021/05/04 07:47:01;;;;;;;2.00;1.30;;;;;;;10.52;61.15;98518.59;5080834;28;20059;-82
2021/05/04 07:49:33;;;;;;;2.08;1.20;;;;;;;10.66;60.15;98526.44;5080683;28;20056;-81
2021/05/04 07:52:00;;;;;;;2.47;1.50;;;;;;;10.54;60.46;98515.41;5083020;28;20048;-83
2021/05/04 07:54:27;;;;;;;4.68;1.70;;;;;;;10.50;60.82;98520.94;5079385;28;20056;-82
2021/05/04 07:56:55;;;;;;;2.35;1.55;;;;;;;10.64;60.71;98520.44;5078881;28;20052;-83
2021/05/04 07:59:23;;;;;;;1.60;1.15;;;;;;;10.65;61.43;98510.94;5080814;28;20049;-82
2021/05/04 08:01:51;;;;;;;2.80;1.40;;;;;;;10.68;63.06;98537.22;5083303;28;20048;-81
2021/05/04 08:04:18;;;;;;;3.22;1.55;;;;;;;10.49;65.15;98530.44;5073081;28;20047;-83
2021/05/04 08:06:45;;;;;;;4.22;1.98;;;;;;;10.23;65.02;98519.84;5078554;28;20063;-83
2021/05/04 08:09:12;;;;;;;2.05;1.40;;;;;;;10.20;65.19;98505.84;5080338;28;20052;-83
2021/05/04 08:11:40;;;;;;;2.42;1.50;;;;;;;10.16;65.60;98506.56;5084747;28;20062;-81
2021/05/04 08:14:08;;;;;;;2.00;1.50;;;;;;;10.12;66.87;98514.03;5081845;28;20055;-81
2021/05/04 08:16:35;;;;;;;2.50;1.83;;;;;;;10.03;67.48;98518.16;5081935;28;20075;-81
2021/05/04 08:19:04;;;;;;;2.95;1.40;;;;;;;10.00;68.36;98516.91;5082610;28;20048;-81
2021/05/04 08:21:33;;;;;;;3.88;1.50;;;;;;;9.92;70.07;98537.34;5081344;28;20056;-80
2021/05/04 08:24:03;;;;;;;2.22;1.60;;;;;;;9.84;70.48;98513.28;5081532;28;20057;-80
2021/05/04 08:26:31;;;;;;;2.22;1.80;;;;;;;9.91;70.36;98532.94;5082984;28;20049;-82
2021/05/04 08:28:58;;;;;;;1.90;1.25;;;;;;;9.83;69.36;98522.81;5080126;28;20473;-81
2021/05/04 08:31:26;;;;;;;3.75;1.88;;;;;;;9.76;70.40;98531.75;5081547;28;20057;-82
2021/05/04 08:33:53;;;;;;;4.43;1.38;;;;;;;9.50;73.68;98507.25;5081152;28;20047;-80
2021/05/04 08:36:20;;;;;;;3.05;2.10;;;;;;;9.46;73.34;98532.16;5080284;28;20048;-80
2021/05/04 08:38:47;;;;;;;2.72;2.20;;;;;;;9.38;76.14;98565.66;5082120;28;20378;-82
2021/05/04 08:41:16;;;;;;;3.83;2.30;;;;;;;9.41;76.17;98520.47;5073015;28;20075;-81
2021/05/04 08:43:46;;;;;;;2.70;1.98;;;;;;;9.50;73.87;98512.81;5080034;28;20071;-80
2021/05/04 08:46:14;;;;;;;2.38;1.58;;;;;;;9.89;72.00;98508.28;5080830;28;20044;-81
2021/05/04 08:48:43;;;;;;;2.90;1.90;;;;;;;10.36;71.04;98476.84;5077732;28;20056;-77
2021/05/04 08:51:12;;;;;;;2.05;1.58;;;;;;;10.87;68.23;98506.63;5074899;28;20072;-77
2021/05/04 08:53:39;;;;;;;2.17;1.45;;;;;;;11.34;65.55;98499.25;5080408;28;20048;-79
2021/05/04 08:56:08;;;;;;;2.67;1.48;;;;;;;11.61;64.43;98483.41;5083495;28;20053;-79
2021/05/04 08:58:35;;;;;;;2.50;1.48;;;;;;;12.14;62.40;98471.63;5084232;28;20052;-79
2021/05/04 09:01:02;;;;;;;1.80;1.23;;;;;;;12.65;60.78;98476.75;5080502;28;20513;-78
2021/05/04 09:03:34;;;;;;;2.85;1.52;;;;;;;12.85;58.11;98485.00;5081108;28;20053;-79
2021/05/04 09:06:04;;;;;;;2.63;1.50;;;;;;;13.12;57.40;98469.81;5078321;28;20056;-80
2021/05/04 09:08:37;;;;;;;3.45;1.67;;;;;;;13.05;56.56;98485.69;5078338;28;20059;-77
2021/05/04 09:11:35;;;;;;;1.33;1.10;;;;;;;13.33;56.50;98502.84;5078472;28;20057;-80
2021/05/04 09:14:14;;;;;;;2.10;1.33;;;;;;;13.45;56.26;98498.16;5083221;28;20048;-83
2021/05/04 09:17:01;;;;;;;1.75;1.20;;;;;;;13.55;56.13;98487.09;5086231;28;20066;-82
2021/05/04 09:19:54;;;;;;;2.28;1.25;;;;;;;14.28;53.09;98494.16;5079116;28;20048;-82
2021/05/04 09:22:35;;;;;;;2.55;1.65;;;;;;;14.03;55.54;98477.97;5080658;28;20044;-81
2021/05/04 09:25:04;;;;;;;2.10;1.30;;;;;;;14.78;52.41;98461.72;5083856;28;20041;-83
2021/05/04 09:27:31;;;;;;;1.90;1.20;;;;;;;14.35;52.94;98477.41;5081154;28;20054;-81
2021/05/04 09:30:03;;;;;;;2.20;1.20;;;;;;;13.95;53.88;98471.50;5075705;28;20056;-81
2021/05/04 09:32:32;;;;;;;3.60;1.25;;;;;;;14.30;53.57;98466.56;5083324;28;20052;-82
2021/05/04 09:35:01;;;;;;;3.55;1.33;;;;;;;14.12;55.73;98441.25;5083008;28;20048;-81
2021/05/04 09:37:37;;;;;;;1.97;1.40;;;;;;;13.92;56.01;98443.47;5083926;28;20045;-81
2021/05/04 09:40:28;;;;;;;1.50;1.20;;;;;;;13.93;56.03;98429.09;5085906;28;20474;-82
2021/05/04 09:43:07;;;;;;;2.38;1.30;;;;;;;13.22;57.35;98433.97;5089547;28;20049;-84
2021/05/04 09:45:35;;;;;;;3.55;1.58;;;;;;;13.00;57.44;98456.88;5081362;28;20053;-80
2021/05/04 09:48:17;;;;;;;4.55;1.80;;;;;;;12.76;59.41;98427.41;5081550;28;20404;-80
2021/05/04 09:50:50;;;;;;;2.53;1.60;;;;;;;12.58;60.03;98418.81;5083039;28;20052;-79
2021/05/04 09:53:23;;;;;;;2.70;1.55;;;;;;;12.64;60.72;98432.44;5081331;28;20048;-79
2021/05/04 09:55:56;;;;;;;1.95;1.40;;;;;;;12.25;63.13;98436.28;5083549;28;20059;-82
2021/05/04 09:58:35;;;;;;;5.00;2.10;;;;;;;11.96;66.20;98479.69;5079873;28;20527;-82
2021/05/04 10:01:04;;;;;;;5.32;2.55;;;;;;;11.16;72.84;98462.66;5083421;28;20408;-81
2021/05/04 10:03:35;;;;;;;5.47;3.08;;;;;;;10.99;74.97;98449.97;5085503;28;20492;-81
2021/05/04 10:06:04;;;;;;;6.20;3.17;;;;;;;10.83;77.13;98461.19;5078819;28;20060;-82
2021/05/04 10:08:35;;;;;;;6.78;4.05;;;;;;;10.84;75.44;98473.94;5087261;28;20059;-82
2021/05/04 10:11:05;;;;;;;4.97;3.03;;;;;;;10.83;74.92;98469.53;5087582;28;20063;-82
2021/05/04 10:13:35;;;;;;;5.20;2.72;;;;;;;10.56;76.52;98463.81;5088222;28;20067;-79
2021/05/04 10:16:05;;;;;;;11.20;4.57;;;;;;;10.07;81.78;98480.91;5085744;28;20040;-81
2021/05/04 10:18:33;;;;;;;9.90;4.80;;;;;;;10.13;81.59;98487.81;5084778;28;20052;-82
2021/05/04 10:21:04;;;;;;;5.80;4.30;;;;;;;10.15;82.70;98498.59;5085108;28;20055;-81
2021/05/04 10:23:35;;;;;;;9.63;5.35;;;;;;;11.02;82.14;98460.38;5083980;28;20051;-79
2021/05/04 10:26:05;;;;;;;5.60;3.08;;;;;;;13.04;76.86;98456.94;5084748;28;20052;-80
2021/05/04 10:28:36;;;;;;;4.32;3.47;;;;;;;12.73;72.77;98458.13;5081615;28;20064;-78
2021/05/04 10:31:05;;;;;;;5.13;2.67;;;;;;;11.71;72.64;98440.97;5077316;28;20052;-78
2021/05/04 10:33:34;;;;;;;4.18;2.55;;;;;;;11.44;73.94;98470.75;5076293;28;20401;-77
2021/05/04 10:36:02;;;;;;;5.53;3.28;;;;;;;12.26;72.10;98449.06;5075139;28;20056;-77
2021/05/04 10:39:01;;;;;;;5.10;3.42;;;;;;;13.20;68.96;98439.94;5075345;28;20059;-77
2021/05/04 10:41:29;;;;;;;2.90;2.28;;;;;;;14.69;63.97;98447.25;5075924;28;20067;-77
2021/05/04 10:44:01;;;;;;;3.65;2.03;;;;;;;13.88;63.31;98457.44;5076426;28;20048;-77
2021/05/04 10:46:38;;;;;;;4.50;2.55;;;;;;;13.72;63.30;98468.88;5075224;28;20048;-77
2021/05/04 10:49:06;;;;;;;4.43;2.20;;;;;;;13.00;65.80;98456.09;5072995;28;20053;-76
2021/05/04 10:51:47;;;;;;;4.53;1.85;;;;;;;12.44;66.64;98454.91;5073855;28;20397;-76
2021/05/04 10:54:15;;;;;;;7.95;1.80;;;;;;;12.42;67.73;98457.28;5073443;28;20509;-75
2021/05/04 10:56:45;;;;;;;7.43;2.45;;;;;;;12.36;69.61;98475.53;5074016;28;20049;-77
2021/05/04 10:59:40;;;;;;;4.55;2.08;;;;;;;12.24;70.82;98486.91;5077256;28;20048;-78
2021/05/04 11:02:33;;;;;;;2.75;1.65;;;;;;;12.34;71.01;98464.72;5082650;28;20048;-79
2021/05/04 11:05:00;;;;;;;3.28;2.50;;;;;;;12.61;69.73;98458.34;5082673;28;20048;-77
2021/05/04 11:07:52;;;;;;;4.57;2.30;;;;;;;13.18;67.34;98461.88;5073077;28;20048;-78
2021/05/04 11:10:19;;;;;;;4.43;2.10;;;;;;;13.69;63.24;98461.28;5076412;28;20516;-78
2021/05/04 11:12:47;;;;;;;4.18;1.80;;;;;;;14.08;62.19;98452.41;5073426;28;20045;-77
2021/05/04 11:15:23;;;;;;;7.22;2.40;;;;;;;14.33;62.25;98443.41;5074578;28;20071;-76
2021/05/04 11:17:50;;;;;;;4.03;1.83;;;;;;;16.43;54.34;98450.03;5073685;28;20059;-76
2021/05/04 11:20:31;;;;;;;4.82;2.40;;;;;;;17.62;52.08;98458.91;5072084;28;20043;-76
2021/05/04 11:22:58;;;;;;;5.60;2.15;;;;;;;19.29;48.53;98426.72;5071164;28;20402;-78
2021/05/04 11:25:38;;;;;;;4.78;1.95;;;;;;;20.66;42.08;98450.84;5073707;28;20052;-76
2021/05/04 11:28:06;;;;;;;5.20;2.40;;;;;;;21.48;42.31;98463.41;5074485;28;20056;-78
2021/05/04 11:30:35;;;;;;;5.97;2.00;;;;;;;20.63;39.37;98461.00;5073413;28;20367;-77
2021/05/04 11:33:27;;;;;;;5.13;1.75;;;;;;;19.64;39.03;98455.69;5079985;28;20052;-79
2021/05/04 11:35:57;;;;;;;4.68;2.10;;;;;;;20.33;39.82;98444.16;5082023;28;20052;-78
2021/05/04 11:38:25;;;;;;;;;;;;;;;19.20;41.73;98438.53;5080741;28;20056;-78
2021/05/04 11:40:52;;;;;;;6.55;2.25;;;;;;;19.68;40.21;98462.09;5077793;28;20276;-77
2021/05/04 11:43:23;;;;;;;8.18;2.22;;;;;;;19.84;38.07;98490.56;5078492;28;20059;-77
2021/05/04 11:45:51;;;;;;;5.25;1.80;;;;;;;19.24;38.44;98453.41;5082214;28;20055;-78